createdAt,value
2023-04-12T07:03:11.232Z,9.88
2023-04-12T07:06:24.248Z,9.89
2023-04-12T07:09:27.894Z,10.14
2023-04-12T07:12:30.674Z,10.45
2023-04-12T07:15:33.304Z,10.62
2023-04-12T07:18:39.239Z,11.02
2023-04-12T07:21:41.715Z,11.21
2023-04-12T07:24:44.498Z,11.01
2023-04-12T07:27:46.957Z,11.26
2023-04-12T07:30:49.583Z,11.16
2023-04-12T07:33:53.468Z,11.00
2023-04-12T07:36:56.272Z,10.67
2023-04-12T07:39:58.737Z,10.62
2023-04-12T07:43:01.504Z,10.74
2023-04-12T07:46:08.343Z,10.44
2023-04-12T07:49:12.497Z,10.48
2023-04-12T07:52:14.968Z,10.74
2023-04-12T07:55:17.687Z,10.58
2023-04-12T07:58:21.633Z,10.42
2023-04-12T08:01:24.337Z,10.70
2023-04-12T08:04:28.575Z,10.57
2023-04-12T08:07:31.173Z,10.67
2023-04-12T08:10:34.095Z,10.68
2023-04-12T08:13:36.597Z,10.69
2023-04-12T08:16:39.327Z,10.63
2023-04-12T08:19:43.108Z,10.98
2023-04-12T08:22:46.185Z,11.00
2023-04-12T08:25:48.599Z,11.17
2023-04-12T08:28:51.533Z,10.93
2023-04-12T08:31:56.201Z,11.13
2023-04-12T08:35:00.393Z,11.42
2023-04-12T08:38:07.408Z,11.34
2023-04-12T08:41:10.032Z,11.60
2023-04-12T08:44:12.754Z,11.64
2023-04-12T08:47:15.611Z,11.68
2023-04-12T08:50:19.300Z,11.88
2023-04-12T08:53:21.718Z,11.77
2023-04-12T08:56:24.121Z,11.64
2023-04-12T08:59:27.417Z,11.81
2023-04-12T09:02:30.109Z,12.22
2023-04-12T09:05:34.252Z,12.23
2023-04-12T09:08:36.889Z,12.55
2023-04-12T09:11:39.495Z,12.57
2023-04-12T09:14:44.794Z,12.07
2023-04-12T09:17:49.491Z,12.35
2023-04-12T09:21:06.112Z,12.40
2023-04-12T09:24:14.002Z,12.47
2023-04-12T09:27:20.827Z,12.74
2023-04-12T09:30:23.810Z,12.36
2023-04-12T09:33:33.520Z,12.77
2023-04-12T09:36:40.789Z,12.90
2023-04-12T09:39:43.278Z,12.91
2023-04-12T09:42:53.621Z,12.87
2023-04-12T09:45:57.540Z,12.90
2023-04-12T09:49:00.681Z,13.02
2023-04-12T09:52:05.455Z,13.50
2023-04-12T09:55:09.735Z,13.22
2023-04-12T09:58:12.283Z,12.62
2023-04-12T10:01:17.592Z,12.90
2023-04-12T10:04:20.726Z,12.79
2023-04-12T10:07:24.547Z,12.65
2023-04-12T10:10:27.238Z,12.88
2023-04-12T10:13:32.295Z,13.20
2023-04-12T10:16:35.219Z,12.96
2023-04-12T10:19:37.767Z,13.05
2023-04-12T10:22:43.852Z,12.98
2023-04-12T10:25:47.033Z,13.02
2023-04-12T10:29:15.424Z,13.17
2023-04-12T10:32:22.354Z,12.88
2023-04-12T10:35:25.302Z,12.51
2023-04-12T10:38:35.277Z,12.99
2023-04-12T10:41:38.792Z,13.36
2023-04-12T10:44:41.161Z,13.47
2023-04-12T10:47:58.440Z,13.68
2023-04-12T10:51:14.725Z,13.74
2023-04-12T10:54:35.577Z,13.75
2023-04-12T10:57:45.244Z,13.50
2023-04-12T11:01:10.028Z,13.74
2023-04-12T11:04:14.528Z,13.43
2023-04-12T11:07:18.836Z,13.37
2023-04-12T11:10:25.922Z,13.53
2023-04-12T11:13:29.191Z,13.62
2023-04-12T11:16:31.704Z,13.98
2023-04-12T11:19:34.559Z,13.91
2023-04-12T11:22:36.995Z,14.37
2023-04-12T11:25:41.303Z,14.19
2023-04-12T11:28:43.696Z,14.44
2023-04-12T11:31:46.939Z,14.06
2023-04-12T11:34:49.481Z,13.62
2023-04-12T11:37:52.131Z,13.56
2023-04-12T11:40:55.900Z,13.72
2023-04-12T11:43:58.614Z,13.84
2023-04-12T11:47:03.943Z,13.74
2023-04-12T11:50:08.434Z,13.48
2023-04-12T11:53:11.967Z,13.39
2023-04-12T11:56:15.730Z,13.57
2023-04-12T11:59:18.031Z,13.68
2023-04-12T12:02:23.808Z,13.62
2023-04-12T12:05:27.895Z,13.95
2023-04-12T12:08:30.639Z,13.98
2023-04-12T12:11:34.718Z,14.12
2023-04-12T12:14:37.239Z,14.24
2023-04-12T12:17:39.996Z,14.18
2023-04-12T12:20:42.740Z,14.60
2023-04-12T12:23:45.910Z,14.63
2023-04-12T12:26:51.194Z,14.70
2023-04-12T12:29:55.122Z,14.80
2023-04-12T12:32:57.609Z,14.72
2023-04-12T12:36:00.563Z,14.41
2023-04-12T12:39:06.770Z,14.52
2023-04-12T12:42:12.075Z,14.37
2023-04-12T12:45:14.662Z,14.41
2023-04-12T12:48:19.413Z,14.41
2023-04-12T12:51:21.966Z,14.75
2023-04-12T12:54:39.528Z,14.79
2023-04-12T12:57:55.118Z,14.79
2023-04-12T13:01:08.552Z,14.68
2023-04-12T13:04:11.109Z,14.87
2023-04-12T13:07:13.966Z,14.64
2023-04-12T13:10:16.437Z,14.66
2023-04-12T13:13:20.528Z,14.76
2023-04-12T13:16:24.694Z,14.69
2023-04-12T13:19:29.395Z,14.54
2023-04-12T13:22:31.866Z,14.69
2023-04-12T13:25:34.571Z,14.53
2023-04-12T13:28:38.401Z,14.63
2023-04-12T13:31:41.170Z,14.65
2023-04-12T13:34:43.596Z,14.76
2023-04-12T13:37:46.314Z,14.51
2023-04-12T13:40:49.136Z,14.82
2023-04-12T13:43:53.128Z,14.86
2023-04-12T13:46:55.488Z,14.72
2023-04-12T13:49:58.124Z,14.69
2023-04-12T13:53:00.529Z,14.66
2023-04-12T13:56:03.274Z,14.76
2023-04-12T13:59:07.182Z,14.59
2023-04-12T14:02:10.079Z,14.72
2023-04-12T14:05:12.886Z,14.68
2023-04-12T14:08:15.540Z,14.81
2023-04-12T14:11:18.608Z,14.91
2023-04-12T14:14:22.435Z,14.77
2023-04-12T14:17:25.261Z,14.81
2023-04-12T14:20:27.677Z,14.76
2023-04-12T14:23:30.811Z,14.44
2023-04-12T14:26:33.224Z,14.53
2023-04-12T14:29:37.744Z,14.82
2023-04-12T14:32:41.090Z,14.46
2023-04-12T14:35:43.867Z,14.44
2023-04-12T14:38:46.336Z,14.71
2023-04-12T14:41:49.025Z,14.78
2023-04-12T14:44:52.797Z,14.70
2023-04-12T14:47:55.883Z,14.71
2023-04-12T14:50:58.262Z,14.55
2023-04-12T14:54:01.228Z,14.66
2023-04-12T14:57:04.119Z,14.89
2023-04-12T15:00:16.359Z,14.75
2023-04-12T15:03:19.372Z,14.74
2023-04-12T15:06:22.972Z,14.84
2023-04-12T15:09:26.102Z,14.85
2023-04-12T15:12:29.043Z,14.50
2023-04-12T15:15:32.888Z,14.41
2023-04-12T15:18:38.023Z,14.33
2023-04-12T15:21:40.519Z,14.72
2023-04-12T15:24:43.231Z,14.79
2023-04-12T15:27:45.672Z,14.73
2023-04-12T15:30:49.870Z,14.75
2023-04-12T15:33:51.978Z,14.54
2023-04-12T15:36:54.653Z,14.25
